Roses, Spain
Current Conditions -  °F | °C
As of 6:30 AM on Monday 29 Dec 2014 (Local Time) from LEGE Reporting Station
Clear Clear  
Wind Chill: 34°   Ceiling: Unl
Heat Index: 34°   Visibility: 6mi
Dew Point: 23°   Wind: 3mph
Humidity: 65%   Direction: 330°NNW
Pressure: 30.21"   Gusts: NA
Location:  42.26°N, 3.18°E
Report Text: LEGE 290530Z 33003KT 300V010 CAVOK 01/M05 Q1023
Loading
Personal Weather Stations






























Interactive Weather Map New forecast layout! Learn more

10-Day Weather Forecast

Advertisements
Track Severe Weather on mobile